createdAt,value
2019-01-16T00:00:13.432Z,36.43
2019-01-16T00:02:58.842Z,28.20
2019-01-16T00:05:33.415Z,28.10
2019-01-16T00:08:13.949Z,28.17
2019-01-16T00:11:01.610Z,37.87
2019-01-16T00:13:52.817Z,32.23
2019-01-16T00:16:27.396Z,35.13
2019-01-16T00:19:16.795Z,27.80
2019-01-16T00:21:48.124Z,34.63
2019-01-16T00:24:19.647Z,30.47
2019-01-16T00:27:03.551Z,32.27
2019-01-16T00:29:35.099Z,29.43
2019-01-16T00:32:06.961Z,36.30
2019-01-16T00:34:38.892Z,48.93
2019-01-16T00:37:10.271Z,30.17
2019-01-16T00:39:54.608Z,30.50
2019-01-16T00:42:29.734Z,30.73
2019-01-16T00:45:04.365Z,31.53
2019-01-16T00:47:44.635Z,42.63
2019-01-16T00:50:25.422Z,30.73
2019-01-16T00:53:04.579Z,29.93
2019-01-16T00:55:38.810Z,30.30
2019-01-16T00:58:10.267Z,39.27
2019-01-16T01:00:44.643Z,33.23
2019-01-16T01:06:21.304Z,24.67
2019-01-16T01:09:10.651Z,41.03
2019-01-16T01:11:47.965Z,28.00
2019-01-16T01:14:31.278Z,31.53
2019-01-16T01:17:02.747Z,32.20
2019-01-16T01:19:36.793Z,39.57
2019-01-16T01:22:10.702Z,26.43
2019-01-16T01:24:48.994Z,31.27
2019-01-16T01:27:36.610Z,23.90
2019-01-16T01:30:10.934Z,41.87
2019-01-16T01:32:51.159Z,30.33
2019-01-16T01:35:39.506Z,30.97
2019-01-16T01:38:25.887Z,32.03
2019-01-16T01:41:19.033Z,26.27
2019-01-16T01:43:56.547Z,37.93
2019-01-16T01:46:45.819Z,24.83
2019-01-16T01:49:23.135Z,29.67
2019-01-16T01:52:03.715Z,29.50
2019-01-16T01:54:35.215Z,25.23
2019-01-16T01:57:08.115Z,24.13
2019-01-16T01:59:51.594Z,27.93
2019-01-16T02:02:39.504Z,25.57
2019-01-16T02:05:20.014Z,25.50
2019-01-16T02:07:57.400Z,27.30
2019-01-16T02:10:29.885Z,24.87
2019-01-16T02:13:10.306Z,44.23
2019-01-16T02:15:47.675Z,18.60
2019-01-16T02:18:27.931Z,30.53
2019-01-16T02:21:07.960Z,27.33
2019-01-16T02:24:13.594Z,25.43
2019-01-16T02:27:01.299Z,29.13
2019-01-16T02:29:36.698Z,23.33
2019-01-16T02:32:22.901Z,27.83
2019-01-16T02:35:04.361Z,33.93
2019-01-16T02:37:41.833Z,26.17
2019-01-16T02:40:22.202Z,26.63
2019-01-16T02:42:59.431Z,22.43
2019-01-16T02:45:33.547Z,55.10
2019-01-16T02:48:08.582Z,27.50
2019-01-16T02:50:40.027Z,31.80
2019-01-16T02:53:11.523Z,33.30
2019-01-16T02:55:45.667Z,37.93
2019-01-16T02:58:27.676Z,27.03
2019-01-16T03:04:10.863Z,20.13
2019-01-16T03:07:00.309Z,34.17
2019-01-16T03:09:31.770Z,23.77
2019-01-16T03:12:03.212Z,26.40
2019-01-16T03:14:40.550Z,45.00
2019-01-16T03:17:14.126Z,16.37
2019-01-16T03:19:48.551Z,20.40
2019-01-16T03:22:22.994Z,56.17
2019-01-16T03:25:00.459Z,21.27
2019-01-16T03:27:48.375Z,22.67
2019-01-16T03:30:35.062Z,50.43
2019-01-16T03:33:21.782Z,29.80
2019-01-16T03:35:58.854Z,31.13
2019-01-16T03:38:36.571Z,22.17
2019-01-16T03:41:14.131Z,20.70
2019-01-16T03:43:57.811Z,26.17
2019-01-16T03:46:36.547Z,31.97
2019-01-16T03:49:37.536Z,20.20
2019-01-16T03:52:20.659Z,26.00
2019-01-16T03:55:04.334Z,36.20
2019-01-16T03:57:38.779Z,19.03
2019-01-16T04:00:33.375Z,44.03
2019-01-16T04:03:20.651Z,21.70
2019-01-16T04:05:54.621Z,23.87
2019-01-16T04:08:26.078Z,44.20
2019-01-16T04:11:09.652Z,32.17
2019-01-16T04:13:44.411Z,31.37
2019-01-16T04:16:15.816Z,35.73
2019-01-16T04:18:59.452Z,29.87
2019-01-16T04:21:33.571Z,26.37
2019-01-16T04:24:14.032Z,27.17
2019-01-16T04:26:46.098Z,24.53
2019-01-16T04:29:32.561Z,27.60
2019-01-16T04:32:09.819Z,41.47
2019-01-16T04:34:44.065Z,26.23
2019-01-16T04:37:15.460Z,22.20
2019-01-16T04:39:48.391Z,26.70
2019-01-16T04:42:24.635Z,25.20
2019-01-16T04:45:04.312Z,23.73
2019-01-16T04:47:47.462Z,26.70
2019-01-16T04:50:25.903Z,24.97
2019-01-16T04:53:03.151Z,23.97
2019-01-16T04:55:43.863Z,19.33
2019-01-16T04:58:15.226Z,47.00
2019-01-16T05:00:46.692Z,30.37
2019-01-16T05:03:26.881Z,26.17
2019-01-16T05:06:02.334Z,39.93
2019-01-16T05:08:36.646Z,25.30
2019-01-16T05:11:10.814Z,26.03
2019-01-16T05:13:58.208Z,35.37
2019-01-16T05:16:47.691Z,22.20
2019-01-16T05:19:38.799Z,21.40
2019-01-16T05:22:08.581Z,19.17
2019-01-16T05:24:45.987Z,40.63
2019-01-16T05:27:33.610Z,31.13
2019-01-16T05:30:04.994Z,15.17
2019-01-16T05:32:45.488Z,19.90
2019-01-16T05:35:22.657Z,25.53
2019-01-16T05:37:59.573Z,18.00
2019-01-16T05:40:47.474Z,17.67
2019-01-16T05:43:18.909Z,27.03
2019-01-16T05:46:08.670Z,38.20
2019-01-16T05:48:46.418Z,21.17
2019-01-16T05:51:17.789Z,16.77
2019-01-16T05:54:05.409Z,23.60
2019-01-16T05:56:45.780Z,19.73
2019-01-16T05:59:32.251Z,20.80
2019-01-16T06:02:09.663Z,18.13
2019-01-16T06:04:44.127Z,19.97
2019-01-16T06:07:15.571Z,23.23
2019-01-16T06:10:08.062Z,21.93
2019-01-16T06:12:39.465Z,18.00
2019-01-16T06:15:19.687Z,23.47
2019-01-16T06:17:54.134Z,60.23
2019-01-16T06:20:30.573Z,23.47
2019-01-16T06:23:20.063Z,21.23
2019-01-16T06:25:57.316Z,25.70
2019-01-16T06:28:34.855Z,28.43
2019-01-16T06:31:15.349Z,22.57
2019-01-16T06:34:01.513Z,22.77
2019-01-16T06:36:48.874Z,25.23
2019-01-16T06:39:37.831Z,26.63
2019-01-16T06:42:09.227Z,25.30
2019-01-16T06:44:57.058Z,18.57
2019-01-16T06:47:29.986Z,27.50
2019-01-16T06:50:07.575Z,31.07
2019-01-16T06:52:53.958Z,27.83
2019-01-16T06:55:25.402Z,22.17
2019-01-16T06:57:59.851Z,49.93
2019-01-16T07:00:33.852Z,35.03
2019-01-16T07:03:11.330Z,38.60
2019-01-16T07:05:59.055Z,27.27
2019-01-16T07:08:33.295Z,34.83
2019-01-16T07:11:07.494Z,32.60
2019-01-16T07:13:38.986Z,30.67
2019-01-16T07:16:19.647Z,27.70
2019-01-16T07:19:07.043Z,38.33
2019-01-16T07:21:54.788Z,29.53
2019-01-16T07:24:26.189Z,53.13
2019-01-16T07:27:12.906Z,29.60
2019-01-16T07:29:47.435Z,42.20
2019-01-16T07:32:24.832Z,26.23
2019-01-16T07:35:05.615Z,33.83
2019-01-16T07:37:55.359Z,33.80
2019-01-16T07:40:32.974Z,52.40
2019-01-16T07:43:13.498Z,29.03
2019-01-16T07:45:44.923Z,36.50
2019-01-16T07:48:19.188Z,32.57
2019-01-16T07:51:02.587Z,50.57
2019-01-16T07:53:40.022Z,39.37
2019-01-16T07:56:29.394Z,37.67
2019-01-16T07:59:21.739Z,61.70
2019-01-16T08:01:51.296Z,33.20
2019-01-16T08:04:41.611Z,33.63
2019-01-16T08:07:22.300Z,43.20
2019-01-16T08:10:05.660Z,35.87
2019-01-16T08:12:49.381Z,36.70
2019-01-16T08:15:37.308Z,111.87
2019-01-16T08:18:17.792Z,41.60
2019-01-16T08:20:52.060Z,42.10
2019-01-16T08:23:23.507Z,31.50
2019-01-16T08:26:02.369Z,50.77
2019-01-16T08:28:34.520Z,40.17
2019-01-16T08:31:15.190Z,30.53
2019-01-16T08:33:46.940Z,49.30
2019-01-16T08:36:30.632Z,38.23
2019-01-16T08:39:10.720Z,40.07
2019-01-16T08:41:45.278Z,38.97
2019-01-16T08:44:22.645Z,36.27
2019-01-16T08:47:03.011Z,39.33
2019-01-16T08:49:37.032Z,37.10
2019-01-16T08:52:23.740Z,33.83
2019-01-16T08:54:57.813Z,42.30
2019-01-16T08:57:45.492Z,60.20
2019-01-16T09:00:23.633Z,42.60
2019-01-16T09:02:55.153Z,41.17
2019-01-16T09:05:43.813Z,45.23
2019-01-16T09:08:31.381Z,34.23
2019-01-16T09:11:06.453Z,41.87
2019-01-16T09:13:40.750Z,33.10
2019-01-16T09:16:15.321Z,33.23
2019-01-16T09:19:04.843Z,47.80
2019-01-16T09:21:51.295Z,70.07
2019-01-16T09:24:29.330Z,47.50
2019-01-16T09:27:03.479Z,40.97
2019-01-16T09:29:52.919Z,46.90
2019-01-16T09:32:24.361Z,47.73
2019-01-16T09:34:58.182Z,49.50
2019-01-16T09:37:38.822Z,49.00
2019-01-16T09:40:18.984Z,52.53
2019-01-16T09:42:56.704Z,46.03
2019-01-16T09:45:32.412Z,39.53
2019-01-16T09:48:11.472Z,47.07
2019-01-16T09:50:49.952Z,43.10
2019-01-16T09:53:25.292Z,63.43
2019-01-16T09:56:01.736Z,45.60
2019-01-16T09:58:41.974Z,49.43
2019-01-16T10:01:13.419Z,53.50
2019-01-16T10:04:04.440Z,58.00
2019-01-16T10:07:16.621Z,49.80
2019-01-16T10:12:56.726Z,53.43
2019-01-16T10:15:47.360Z,56.57
2019-01-16T10:18:21.621Z,56.40
2019-01-16T10:20:56.062Z,58.77
2019-01-16T10:23:27.902Z,57.17
2019-01-16T10:25:59.600Z,56.13
2019-01-16T10:28:35.230Z,57.20
2019-01-16T10:31:22.300Z,59.10
2019-01-16T10:33:56.727Z,76.87
2019-01-16T10:36:48.434Z,60.90
2019-01-16T10:39:41.101Z,53.87
2019-01-16T10:42:15.916Z,61.27
2019-01-16T10:44:57.940Z,58.97
2019-01-16T10:47:29.978Z,54.97
2019-01-16T10:50:13.857Z,59.17
2019-01-16T10:52:51.062Z,62.37
2019-01-16T10:55:35.198Z,59.43
2019-01-16T10:58:24.421Z,53.73
2019-01-16T11:01:01.756Z,53.10
2019-01-16T11:03:38.825Z,56.67
2019-01-16T11:06:21.934Z,49.50
2019-01-16T11:08:56.215Z,72.07
2019-01-16T11:11:36.509Z,54.63
2019-01-16T11:14:08.355Z,81.13
2019-01-16T11:16:56.870Z,73.63
2019-01-16T11:19:47.114Z,60.73
2019-01-16T11:22:25.075Z,68.50
2019-01-16T11:25:15.078Z,61.37
2019-01-16T11:27:48.931Z,58.17
2019-01-16T11:30:23.840Z,52.70
2019-01-16T11:33:04.003Z,64.87
2019-01-16T11:35:55.340Z,51.77
2019-01-16T11:38:28.600Z,56.47
2019-01-16T11:41:02.776Z,58.33
2019-01-16T11:43:51.690Z,55.47
2019-01-16T11:46:24.124Z,60.40
2019-01-16T11:49:11.941Z,58.00
2019-01-16T11:51:46.894Z,72.73
2019-01-16T11:54:34.917Z,52.30
2019-01-16T11:57:10.588Z,50.83
2019-01-16T11:59:47.813Z,56.60
2019-01-16T12:02:22.516Z,56.53
2019-01-16T12:05:10.958Z,55.87
2019-01-16T12:07:48.540Z,58.20
2019-01-16T12:10:33.960Z,58.90
2019-01-16T12:13:13.837Z,52.03
2019-01-16T12:16:04.232Z,33.17
2019-01-16T12:18:52.993Z,48.57
2019-01-16T12:21:41.356Z,47.77
2019-01-16T12:24:19.019Z,49.10
2019-01-16T12:27:02.709Z,43.67
2019-01-16T12:29:35.558Z,43.60
2019-01-16T12:32:06.920Z,46.10
2019-01-16T12:34:38.718Z,48.10
2019-01-16T12:37:28.414Z,43.70
2019-01-16T12:40:03.091Z,46.07
2019-01-16T12:42:36.094Z,53.50
2019-01-16T12:45:24.796Z,41.90
2019-01-16T12:48:01.777Z,57.50
2019-01-16T12:50:51.244Z,49.33
2019-01-16T12:53:29.013Z,43.53
2019-01-16T12:56:00.728Z,43.13
2019-01-16T12:58:47.142Z,49.03
2019-01-16T13:01:19.190Z,48.73
2019-01-16T13:04:09.386Z,54.80
2019-01-16T13:06:58.292Z,48.70
2019-01-16T13:09:42.474Z,51.53
2019-01-16T13:12:15.158Z,58.80
2019-01-16T13:14:49.536Z,46.50
2019-01-16T13:17:24.775Z,46.27
2019-01-16T13:20:16.495Z,59.33
2019-01-16T13:23:01.909Z,52.03
2019-01-16T13:25:48.847Z,63.90
2019-01-16T13:28:38.773Z,57.13
2019-01-16T13:31:27.713Z,71.87
2019-01-16T13:33:59.411Z,77.90
2019-01-16T13:36:34.038Z,66.77
2019-01-16T13:39:24.554Z,58.27
2019-01-16T13:41:58.597Z,58.60
2019-01-16T13:44:47.012Z,47.40
2019-01-16T13:47:28.052Z,51.27
2019-01-16T13:50:06.822Z,58.60
2019-01-16T13:52:48.082Z,53.17
2019-01-16T13:55:23.766Z,63.00
2019-01-16T13:58:13.256Z,48.67
2019-01-16T14:00:56.128Z,65.57
2019-01-16T14:03:31.540Z,48.13
2019-01-16T14:06:03.772Z,45.70
2019-01-16T14:08:43.874Z,66.80
2019-01-16T14:11:17.624Z,44.70
2019-01-16T14:14:00.682Z,41.63
2019-01-16T14:16:39.026Z,73.97
2019-01-16T14:19:18.094Z,50.00
2019-01-16T14:22:08.780Z,68.57
2019-01-16T14:25:01.204Z,60.83
2019-01-16T14:27:38.640Z,48.07
2019-01-16T14:30:16.481Z,52.60
2019-01-16T14:32:51.739Z,42.97
2019-01-16T14:35:24.256Z,45.07
2019-01-16T14:38:12.502Z,45.33
2019-01-16T14:40:48.096Z,52.00
2019-01-16T14:43:37.603Z,69.00
2019-01-16T14:46:11.884Z,64.30
2019-01-16T14:48:44.985Z,59.43
2019-01-16T14:51:20.852Z,55.10
2019-01-16T14:53:57.012Z,91.77
2019-01-16T14:56:34.442Z,40.50
2019-01-16T14:59:24.522Z,54.73
2019-01-16T15:02:16.007Z,48.80
2019-01-16T15:05:03.716Z,47.30
2019-01-16T15:07:38.284Z,42.30
2019-01-16T15:10:12.703Z,41.27
2019-01-16T15:12:45.616Z,55.43
2019-01-16T15:15:22.996Z,49.70
2019-01-16T15:17:57.609Z,45.93
2019-01-16T15:20:39.680Z,46.37
2019-01-16T15:23:15.198Z,50.73
2019-01-16T15:25:48.877Z,44.13
2019-01-16T15:28:39.320Z,44.90
2019-01-16T15:31:13.199Z,52.97
2019-01-16T15:33:48.920Z,32.73
2019-01-16T15:36:29.486Z,38.30
2019-01-16T15:39:04.936Z,34.13
2019-01-16T15:41:45.804Z,37.70
2019-01-16T15:44:20.993Z,39.70
2019-01-16T15:46:55.812Z,39.73
2019-01-16T15:49:27.402Z,35.10
2019-01-16T15:51:58.824Z,38.50
2019-01-16T15:54:30.379Z,38.63
2019-01-16T15:57:13.503Z,50.80
2019-01-16T15:59:50.940Z,44.53
2019-01-16T16:02:46.641Z,43.00
2019-01-16T16:08:18.992Z,80.27
2019-01-16T16:16:55.742Z,79.43
2019-01-16T16:19:37.733Z,68.77
2019-01-16T16:22:37.128Z,47.30
2019-01-16T16:25:30.294Z,71.50
2019-01-16T16:31:22.955Z,50.63
2019-01-16T16:33:57.038Z,52.07
2019-01-16T16:36:31.478Z,49.23
2019-01-16T16:39:09.867Z,50.40
2019-01-16T16:41:42.112Z,51.57
2019-01-16T16:44:20.456Z,49.07
2019-01-16T16:46:58.617Z,55.27
2019-01-16T16:49:41.835Z,57.17
2019-01-16T16:52:28.179Z,53.93
2019-01-16T16:54:59.536Z,65.67
2019-01-16T16:57:44.263Z,63.00
2019-01-16T17:00:19.342Z,48.37
2019-01-16T17:02:52.122Z,61.67
2019-01-16T17:05:26.462Z,64.17
2019-01-16T17:07:57.872Z,58.23
2019-01-16T17:10:41.453Z,91.20
2019-01-16T17:13:13.920Z,51.80
2019-01-16T17:15:59.246Z,66.10
2019-01-16T17:18:28.373Z,58.20
2019-01-16T17:21:12.293Z,62.77
2019-01-16T17:23:50.993Z,50.07
2019-01-16T17:26:31.944Z,66.87
2019-01-16T17:29:19.672Z,67.63
2019-01-16T17:31:55.524Z,80.80
2019-01-16T17:34:31.852Z,72.37
2019-01-16T17:37:15.323Z,67.00
2019-01-16T17:39:51.985Z,50.93
2019-01-16T17:42:29.497Z,116.53
2019-01-16T17:45:19.761Z,60.17
2019-01-16T17:48:08.762Z,79.43
2019-01-16T17:50:56.252Z,61.30
2019-01-16T17:53:30.271Z,70.67
2019-01-16T17:56:02.497Z,67.07
2019-01-16T17:58:48.224Z,67.27
2019-01-16T18:01:19.642Z,74.20
2019-01-16T18:04:08.092Z,80.03
2019-01-16T18:06:56.000Z,72.70
2019-01-16T18:09:30.244Z,107.77
2019-01-16T18:12:16.864Z,92.33
2019-01-16T18:15:06.221Z,81.10
2019-01-16T18:17:54.400Z,107.90
2019-01-16T18:20:42.200Z,79.93
2019-01-16T18:23:13.735Z,85.23
2019-01-16T18:25:46.348Z,162.87
2019-01-16T18:28:20.886Z,99.33
2019-01-16T18:31:13.313Z,101.57
2019-01-16T18:33:45.828Z,114.43
2019-01-16T18:36:20.404Z,127.83
2019-01-16T18:39:06.872Z,105.27
2019-01-16T18:41:56.252Z,129.83
2019-01-16T18:44:45.972Z,106.80
2019-01-16T18:47:23.731Z,115.13
2019-01-16T18:50:10.524Z,111.47
2019-01-16T18:52:56.222Z,107.73
2019-01-16T18:55:42.802Z,103.20
2019-01-16T18:58:15.915Z,110.03
2019-01-16T19:00:50.239Z,107.13
2019-01-16T19:03:24.652Z,100.20
2019-01-16T19:06:00.858Z,89.83
2019-01-16T19:08:49.378Z,122.03
2019-01-16T19:11:27.123Z,110.57
2019-01-16T19:14:07.098Z,168.30
2019-01-16T19:16:47.940Z,110.10
2019-01-16T19:19:31.332Z,110.93
2019-01-16T19:22:21.708Z,99.57
2019-01-16T19:25:08.782Z,90.67
2019-01-16T19:27:57.872Z,131.30
2019-01-16T19:30:35.251Z,111.13
2019-01-16T19:33:07.315Z,112.87
2019-01-16T19:35:50.271Z,107.90
2019-01-16T19:38:31.112Z,101.03
2019-01-16T19:41:05.576Z,107.93
2019-01-16T19:43:49.811Z,106.63
2019-01-16T19:46:37.695Z,101.93
2019-01-16T19:49:11.196Z,98.00
2019-01-16T19:51:48.412Z,113.33
2019-01-16T19:54:37.890Z,108.83
2019-01-16T19:57:19.695Z,96.70
2019-01-16T19:59:55.941Z,106.70
2019-01-16T20:02:36.604Z,83.40
2019-01-16T20:05:25.214Z,168.53
2019-01-16T20:08:00.205Z,97.30
2019-01-16T20:10:32.334Z,86.27
2019-01-16T20:13:22.172Z,106.53
2019-01-16T20:16:10.452Z,84.63
2019-01-16T20:18:46.693Z,81.77
2019-01-16T20:21:25.361Z,99.23
2019-01-16T20:24:09.576Z,100.90
2019-01-16T20:26:43.057Z,97.27
2019-01-16T20:29:18.175Z,85.40
2019-01-16T20:31:50.473Z,86.40
2019-01-16T20:34:30.967Z,83.97
2019-01-16T20:37:11.184Z,85.47
2019-01-16T20:40:00.726Z,81.03
2019-01-16T20:42:37.333Z,87.80
2019-01-16T20:45:16.991Z,89.50
2019-01-16T20:47:58.295Z,76.23
2019-01-16T20:50:33.743Z,104.20
2019-01-16T20:53:17.455Z,71.80
2019-01-16T20:55:52.264Z,75.50
2019-01-16T20:58:42.012Z,71.00
2019-01-16T21:01:29.072Z,68.43
2019-01-16T21:04:11.592Z,64.60
2019-01-16T21:06:50.303Z,93.13
2019-01-16T21:09:29.640Z,70.37
2019-01-16T21:12:11.956Z,67.67
2019-01-16T21:14:56.354Z,99.67
2019-01-16T21:17:48.993Z,93.90
2019-01-16T21:20:27.638Z,103.27
2019-01-16T21:23:03.888Z,82.43
2019-01-16T21:25:42.138Z,73.73
2019-01-16T21:28:30.302Z,76.23
2019-01-16T21:31:11.739Z,80.63
2019-01-16T21:33:46.695Z,80.20
2019-01-16T21:36:19.406Z,78.27
2019-01-16T21:39:00.402Z,75.83
2019-01-16T21:41:42.152Z,80.67
2019-01-16T21:44:32.789Z,77.13
2019-01-16T21:47:04.416Z,81.87
2019-01-16T21:49:48.851Z,68.00
2019-01-16T21:52:27.172Z,84.17
2019-01-16T21:54:58.622Z,114.70
2019-01-16T21:57:34.474Z,75.30
2019-01-16T22:00:14.912Z,85.23
2019-01-16T22:02:50.940Z,75.30
2019-01-16T22:05:28.282Z,73.87
2019-01-16T22:08:15.536Z,84.10
2019-01-16T22:11:02.245Z,102.67
2019-01-16T22:13:39.872Z,92.30
2019-01-16T22:16:27.349Z,83.00
2019-01-16T22:19:18.502Z,71.27
2019-01-16T22:22:06.404Z,67.30
2019-01-16T22:24:38.692Z,73.70
2019-01-16T22:27:27.830Z,77.33
2019-01-16T22:30:08.701Z,73.07
2019-01-16T22:32:42.838Z,72.47
2019-01-16T22:35:35.467Z,73.30
2019-01-16T22:38:16.612Z,81.03
2019-01-16T22:40:52.646Z,83.17
2019-01-16T22:43:28.684Z,75.83
2019-01-16T22:46:01.187Z,78.83
2019-01-16T22:48:37.288Z,81.50
2019-01-16T22:51:23.909Z,76.07
2019-01-16T22:53:58.765Z,77.53
2019-01-16T22:56:46.687Z,75.90
2019-01-16T22:59:19.527Z,79.30
2019-01-16T23:02:06.771Z,77.97
2019-01-16T23:04:45.678Z,74.80
2019-01-16T23:07:27.831Z,118.23
2019-01-16T23:10:08.008Z,81.07
2019-01-16T23:12:40.573Z,77.53
2019-01-16T23:15:20.375Z,142.27
2019-01-16T23:17:57.010Z,129.30
2019-01-16T23:20:34.099Z,148.27
2019-01-16T23:23:21.424Z,98.73
2019-01-16T23:26:02.099Z,75.70
2019-01-16T23:28:36.323Z,75.47
2019-01-16T23:31:18.095Z,152.23
2019-01-16T23:33:52.280Z,73.07
2019-01-16T23:36:34.118Z,114.00
2019-01-16T23:39:09.357Z,70.23
2019-01-16T23:41:47.105Z,84.87
2019-01-16T23:44:21.924Z,89.67
2019-01-16T23:46:59.602Z,90.97
2019-01-16T23:49:40.175Z,88.47
2019-01-16T23:52:13.283Z,80.47
2019-01-16T23:54:45.798Z,83.00
2019-01-16T23:57:35.717Z,83.63
